createdAt,value
2023-02-12T00:01:22.822Z,8.73
2023-02-12T00:03:49.631Z,8.63
2023-02-12T00:06:17.356Z,8.53
2023-02-12T00:08:45.449Z,9.03
2023-02-12T00:11:14.821Z,8.43
2023-02-12T00:13:41.921Z,9.00
2023-02-12T00:16:11.621Z,10.00
2023-02-12T00:18:38.334Z,9.60
2023-02-12T00:21:06.606Z,8.27
2023-02-12T00:23:33.091Z,8.40
2023-02-12T00:26:00.124Z,7.60
2023-02-12T00:28:27.115Z,8.40
2023-02-12T00:30:53.898Z,8.03
2023-02-12T00:33:20.505Z,8.30
2023-02-12T00:35:58.214Z,7.90
2023-02-12T00:38:25.116Z,7.70
2023-02-12T00:40:51.736Z,8.57
2023-02-12T00:43:18.412Z,7.80
2023-02-12T00:45:48.806Z,8.20
2023-02-12T00:48:16.947Z,7.80
2023-02-12T00:50:47.873Z,8.17
2023-02-12T00:53:15.003Z,10.17
2023-02-12T00:55:43.395Z,7.73
2023-02-12T00:58:10.402Z,8.60
2023-02-12T01:00:38.306Z,9.90
2023-02-12T01:03:06.039Z,9.70
2023-02-12T01:05:32.849Z,10.60
2023-02-12T01:07:59.922Z,9.53
2023-02-12T01:10:27.257Z,8.83
2023-02-12T01:12:54.142Z,8.70
2023-02-12T01:15:20.766Z,9.03
2023-02-12T01:17:47.346Z,7.97
2023-02-12T01:20:17.662Z,8.10
2023-02-12T01:22:44.675Z,7.50
2023-02-12T01:25:12.105Z,7.90
2023-02-12T01:27:38.687Z,7.97
2023-02-12T01:30:06.876Z,8.23
2023-02-12T01:32:34.352Z,8.50
2023-02-12T01:35:02.157Z,9.27
2023-02-12T01:37:28.640Z,8.30
2023-02-12T01:39:55.405Z,7.90
2023-02-12T01:42:22.008Z,8.50
2023-02-12T01:45:31.586Z,7.77
2023-02-12T01:48:00.441Z,11.90
2023-02-12T01:50:27.109Z,10.90
2023-02-12T01:52:57.317Z,9.50
2023-02-12T01:55:24.917Z,8.77
2023-02-12T01:57:51.620Z,7.63
2023-02-12T02:00:23.466Z,8.73
2023-02-12T02:02:54.554Z,7.17
2023-02-12T02:05:27.683Z,7.80
2023-02-12T02:07:54.281Z,7.97
2023-02-12T02:10:20.876Z,7.73
2023-02-12T02:13:06.160Z,6.90
2023-02-12T02:15:33.273Z,8.13
2023-02-12T02:18:03.231Z,9.03
2023-02-12T02:20:39.283Z,8.17
2023-02-12T02:23:33.711Z,8.20
2023-02-12T02:26:28.794Z,8.20
2023-02-12T02:29:13.576Z,7.67
2023-02-12T02:31:45.443Z,8.80
2023-02-12T02:34:21.237Z,7.07
2023-02-12T02:37:16.259Z,7.47
2023-02-12T02:39:53.133Z,7.63
2023-02-12T02:42:27.755Z,8.20
2023-02-12T02:44:57.205Z,7.40
2023-02-12T02:47:33.094Z,7.67
2023-02-12T02:50:04.076Z,7.87
2023-02-12T02:52:36.070Z,7.87
2023-02-12T02:55:06.953Z,8.23
2023-02-12T02:57:41.956Z,7.03
2023-02-12T03:00:18.620Z,8.30
2023-02-12T03:02:56.320Z,7.20
2023-02-12T03:05:27.155Z,7.70
2023-02-12T03:08:01.962Z,8.10
2023-02-12T03:10:32.800Z,8.40
2023-02-12T03:13:07.713Z,7.47
2023-02-12T03:15:42.994Z,7.67
2023-02-12T03:18:13.079Z,6.43
2023-02-12T03:20:46.285Z,7.80
2023-02-12T03:23:17.856Z,8.67
2023-02-12T03:25:54.714Z,7.10
2023-02-12T03:28:30.735Z,6.80
2023-02-12T03:31:06.516Z,6.93
2023-02-12T03:33:44.762Z,6.90
2023-02-12T03:36:21.093Z,6.53
2023-02-12T03:38:56.361Z,6.80
2023-02-12T03:41:32.066Z,6.73
2023-02-12T03:44:30.101Z,7.03
2023-02-12T03:47:30.543Z,7.47
2023-02-12T03:50:10.189Z,7.43
2023-02-12T03:52:37.145Z,7.27
2023-02-12T03:55:05.274Z,7.80
2023-02-12T03:57:37.084Z,6.60
2023-02-12T04:00:09.860Z,8.10
2023-02-12T04:02:36.634Z,7.37
2023-02-12T04:05:08.250Z,8.00
2023-02-12T04:07:36.213Z,7.17
2023-02-12T04:10:02.981Z,6.23
2023-02-12T04:12:41.574Z,7.20
2023-02-12T04:15:32.580Z,8.13
2023-02-12T04:18:15.347Z,7.50
2023-02-12T04:20:56.871Z,7.40
2023-02-12T04:23:45.166Z,7.27
2023-02-12T04:26:20.695Z,6.20
2023-02-12T04:29:16.498Z,7.50
2023-02-12T04:31:48.315Z,7.57
2023-02-12T04:34:32.275Z,7.40
2023-02-12T04:36:58.858Z,7.73
2023-02-12T04:39:30.338Z,7.40
2023-02-12T04:42:03.640Z,7.20
2023-02-12T04:44:34.828Z,7.10
2023-02-12T04:47:01.513Z,8.00
2023-02-12T04:49:28.229Z,7.50
2023-02-12T04:51:55.049Z,6.67
2023-02-12T04:54:23.052Z,6.87
2023-02-12T04:56:50.102Z,7.40
2023-02-12T04:59:17.118Z,7.57
2023-02-12T05:01:44.307Z,7.07
2023-02-12T05:04:13.070Z,6.50
2023-02-12T05:06:40.759Z,7.33
2023-02-12T05:09:07.989Z,7.00
2023-02-12T05:11:34.565Z,7.13
2023-02-12T05:14:01.805Z,7.70
2023-02-12T05:16:28.680Z,6.87
2023-02-12T05:18:55.148Z,7.10
2023-02-12T05:21:21.851Z,7.47
2023-02-12T05:23:48.634Z,6.83
2023-02-12T05:26:20.420Z,6.50
2023-02-12T05:28:47.652Z,6.77
2023-02-12T05:31:20.772Z,6.47
2023-02-12T05:33:48.715Z,6.50
2023-02-12T05:36:18.735Z,6.40
2023-02-12T05:38:45.452Z,6.27
2023-02-12T05:41:17.549Z,7.70
2023-02-12T05:43:44.422Z,6.80
2023-02-12T05:46:11.868Z,7.50
2023-02-12T05:48:39.606Z,6.90
2023-02-12T05:51:08.961Z,6.73
2023-02-12T05:53:36.526Z,7.50
2023-02-12T05:56:07.885Z,6.77
2023-02-12T05:58:34.365Z,7.40
2023-02-12T06:01:01.065Z,7.07
2023-02-12T06:03:27.950Z,6.90
2023-02-12T06:05:55.255Z,7.60
2023-02-12T06:08:21.921Z,7.80
2023-02-12T06:10:48.533Z,6.97
2023-02-12T06:13:15.067Z,7.40
2023-02-12T06:15:43.361Z,7.93
2023-02-12T06:18:11.340Z,7.30
2023-02-12T06:20:41.693Z,6.93
2023-02-12T06:23:08.246Z,7.57
2023-02-12T06:25:34.807Z,11.63
2023-02-12T06:28:01.297Z,10.60
2023-02-12T06:30:27.908Z,10.63
2023-02-12T06:32:54.927Z,9.40
2023-02-12T06:35:21.612Z,9.00
2023-02-12T06:37:48.158Z,7.90
2023-02-12T06:40:15.031Z,7.37
2023-02-12T06:42:41.554Z,8.80
2023-02-12T06:45:08.923Z,8.77
2023-02-12T06:47:35.417Z,7.40
2023-02-12T06:50:02.852Z,8.37
2023-02-12T06:52:30.134Z,7.27
2023-02-12T06:55:02.047Z,6.80
2023-02-12T06:57:30.568Z,7.67
2023-02-12T07:00:04.922Z,8.13
2023-02-12T07:02:31.464Z,9.97
2023-02-12T07:05:00.495Z,9.80
2023-02-12T07:07:29.708Z,9.47
2023-02-12T07:09:56.354Z,9.00
2023-02-12T07:12:24.906Z,10.23
2023-02-12T07:14:51.464Z,11.10
2023-02-12T07:17:18.021Z,9.87
2023-02-12T07:19:44.765Z,9.03
2023-02-12T07:22:11.841Z,9.80
2023-02-12T07:24:39.844Z,9.20
2023-02-12T07:27:07.444Z,8.70
2023-02-12T07:29:38.209Z,9.53
2023-02-12T07:32:07.618Z,8.80
2023-02-12T07:34:34.460Z,9.83
2023-02-12T07:37:02.185Z,9.50
2023-02-12T07:39:28.830Z,9.63
2023-02-12T07:41:57.783Z,11.30
2023-02-12T07:44:24.615Z,10.80
2023-02-12T07:46:51.724Z,11.90
2023-02-12T07:49:21.987Z,12.73
2023-02-12T07:51:49.756Z,14.37
2023-02-12T07:54:17.373Z,14.10
2023-02-12T07:56:47.278Z,12.97
2023-02-12T07:59:16.059Z,11.80
2023-02-12T08:01:48.734Z,12.23
2023-02-12T08:04:18.196Z,10.40
2023-02-12T08:06:48.091Z,11.40
2023-02-12T08:09:18.381Z,10.90
2023-02-12T08:11:45.482Z,11.07
2023-02-12T08:14:16.389Z,12.30
2023-02-12T08:16:44.883Z,12.40
2023-02-12T08:19:19.382Z,12.20
2023-02-12T08:21:50.108Z,12.10
2023-02-12T08:24:16.676Z,13.30
2023-02-12T08:26:44.312Z,11.77
2023-02-12T08:29:19.137Z,13.40
2023-02-12T08:31:47.876Z,11.63
2023-02-12T08:34:19.730Z,13.63
2023-02-12T08:36:47.067Z,13.33
2023-02-12T08:39:17.042Z,13.70
2023-02-12T08:41:44.390Z,12.90
2023-02-12T08:44:11.663Z,13.40
2023-02-12T08:46:41.293Z,13.43
2023-02-12T08:49:11.825Z,13.20
2023-02-12T08:51:43.620Z,13.33
2023-02-12T08:54:14.295Z,13.50
2023-02-12T08:56:43.050Z,13.80
2023-02-12T08:59:11.070Z,13.70
2023-02-12T09:01:39.311Z,13.80
2023-02-12T09:04:14.192Z,12.47
2023-02-12T09:06:42.369Z,11.83
2023-02-12T09:09:10.560Z,12.63
2023-02-12T09:11:39.018Z,13.50
2023-02-12T09:14:09.583Z,13.40
2023-02-12T09:16:37.826Z,13.30
2023-02-12T09:19:08.937Z,13.30
2023-02-12T09:21:35.736Z,14.00
2023-02-12T09:24:03.811Z,14.27
2023-02-12T09:26:31.402Z,13.73
2023-02-12T09:28:59.557Z,13.13
2023-02-12T09:31:28.940Z,13.53
2023-02-12T09:33:59.388Z,12.13
2023-02-12T09:36:26.298Z,12.83
2023-02-12T09:38:54.225Z,13.80
2023-02-12T09:41:57.797Z,13.33
2023-02-12T09:44:37.471Z,13.47
2023-02-12T09:47:12.936Z,14.30
2023-02-12T09:50:22.298Z,13.20
2023-02-12T09:52:50.939Z,14.57
2023-02-12T09:55:21.693Z,15.23
2023-02-12T09:57:53.649Z,13.77
2023-02-12T10:00:34.355Z,14.10
2023-02-12T10:03:05.697Z,15.37
2023-02-12T10:05:36.652Z,14.20
2023-02-12T10:08:24.863Z,14.80
2023-02-12T10:10:54.652Z,15.20
2023-02-12T10:13:48.556Z,14.83
2023-02-12T10:16:27.473Z,14.70
2023-02-12T10:19:17.795Z,15.03
2023-02-12T10:22:13.391Z,14.13
2023-02-12T10:24:53.197Z,13.83
2023-02-12T10:27:41.999Z,14.30
2023-02-12T10:30:23.167Z,17.07
2023-02-12T10:32:53.525Z,14.37
2023-02-12T10:35:23.807Z,14.93
2023-02-12T10:38:14.532Z,16.63
2023-02-12T10:40:44.780Z,14.13
2023-02-12T10:43:13.346Z,15.10
2023-02-12T10:45:42.659Z,16.00
2023-02-12T10:48:23.851Z,16.20
2023-02-12T10:51:12.875Z,15.07
2023-02-12T10:53:44.764Z,15.10
2023-02-12T10:56:17.582Z,13.93
2023-02-12T10:58:51.342Z,17.20
2023-02-12T11:01:23.052Z,16.90
2023-02-12T11:03:51.718Z,15.73
2023-02-12T11:06:28.149Z,15.70
2023-02-12T11:08:55.922Z,12.17
2023-02-12T11:11:37.752Z,13.97
2023-02-12T11:14:07.257Z,11.27
2023-02-12T11:16:39.098Z,12.70
2023-02-12T11:19:08.124Z,11.43
2023-02-12T11:21:39.081Z,12.50
2023-02-12T11:24:50.769Z,13.47
2023-02-12T11:27:30.715Z,12.17
2023-02-12T11:30:14.877Z,12.20
2023-02-12T11:32:41.744Z,12.90
2023-02-12T11:35:19.403Z,14.20
2023-02-12T11:37:47.573Z,12.10
2023-02-12T11:40:20.455Z,11.50
2023-02-12T11:42:54.925Z,9.73
2023-02-12T11:45:25.048Z,9.60
2023-02-12T11:47:53.010Z,9.30
2023-02-12T11:50:26.774Z,11.87
2023-02-12T11:52:59.065Z,9.67
2023-02-12T11:55:31.031Z,10.37
2023-02-12T11:58:17.844Z,9.50
2023-02-12T12:01:10.010Z,9.73
2023-02-12T12:04:29.429Z,8.90
2023-02-12T12:07:01.610Z,7.07
2023-02-12T12:09:33.648Z,6.30
2023-02-12T12:12:10.807Z,7.67
2023-02-12T12:15:09.790Z,6.60
2023-02-12T12:18:05.353Z,5.27
2023-02-12T12:20:51.166Z,5.70
2023-02-12T12:23:21.855Z,5.50
2023-02-12T12:25:53.821Z,5.20
2023-02-12T12:28:29.208Z,5.80
2023-02-12T12:31:15.482Z,6.37
2023-02-12T12:33:48.875Z,7.03
2023-02-12T12:36:36.343Z,6.67
2023-02-12T12:39:21.721Z,6.40
2023-02-12T12:42:12.033Z,7.00
2023-02-12T12:44:49.530Z,7.97
2023-02-12T12:47:19.157Z,7.67
2023-02-12T12:50:13.743Z,7.73
2023-02-12T12:52:56.820Z,7.20
2023-02-12T12:55:54.675Z,8.83
2023-02-12T12:58:34.484Z,8.20
2023-02-12T13:01:36.532Z,7.83
2023-02-12T13:04:22.605Z,9.27
2023-02-12T13:06:56.971Z,8.17
2023-02-12T13:09:25.499Z,7.33
2023-02-12T13:12:25.320Z,8.57
2023-02-12T13:15:08.252Z,7.63
2023-02-12T13:17:47.299Z,7.90
2023-02-12T13:20:20.886Z,7.53
2023-02-12T13:23:00.512Z,8.30
2023-02-12T13:25:32.681Z,7.80
2023-02-12T13:28:00.718Z,7.07
2023-02-12T13:30:33.756Z,6.63
2023-02-12T13:33:26.667Z,6.37
2023-02-12T13:35:59.410Z,5.60
2023-02-12T13:38:31.304Z,5.10
2023-02-12T13:41:02.039Z,5.83
2023-02-12T13:43:40.210Z,5.10
2023-02-12T13:46:29.644Z,5.20
2023-02-12T13:49:02.430Z,4.97
2023-02-12T13:51:45.655Z,5.07
2023-02-12T13:54:34.770Z,4.60
2023-02-12T13:57:03.972Z,5.17
2023-02-12T13:59:35.345Z,4.70
2023-02-12T14:02:25.941Z,4.50
2023-02-12T14:05:06.951Z,4.57
2023-02-12T14:08:14.749Z,4.53
2023-02-12T14:10:43.534Z,5.57
2023-02-12T14:13:18.092Z,4.80
2023-02-12T14:15:51.285Z,5.77
2023-02-12T14:18:38.359Z,5.60
2023-02-12T14:21:14.065Z,5.43
2023-02-12T14:23:46.448Z,5.53
2023-02-12T14:26:18.152Z,5.73
2023-02-12T14:29:07.063Z,6.00
2023-02-12T14:31:38.427Z,6.60
2023-02-12T14:34:12.488Z,6.27
2023-02-12T14:36:40.912Z,5.97
2023-02-12T14:39:19.882Z,6.33
2023-02-12T14:41:56.670Z,5.80
2023-02-12T14:44:35.670Z,6.07
2023-02-12T14:47:32.636Z,5.50
2023-02-12T14:50:16.729Z,6.23
2023-02-12T14:52:46.537Z,7.70
2023-02-12T14:55:24.836Z,6.60
2023-02-12T14:57:56.435Z,6.43
2023-02-12T15:00:32.363Z,7.23
2023-02-12T15:03:18.450Z,6.60
2023-02-12T15:05:56.949Z,6.90
2023-02-12T15:08:37.645Z,7.53
2023-02-12T15:11:42.480Z,7.23
2023-02-12T15:14:33.118Z,7.00
2023-02-12T15:17:13.626Z,7.13
2023-02-12T15:20:27.245Z,7.90
2023-02-12T15:22:55.072Z,8.00
2023-02-12T15:25:27.843Z,7.40
2023-02-12T15:28:11.985Z,6.30
2023-02-12T15:30:44.521Z,7.60
2023-02-12T15:33:32.295Z,8.00
2023-02-12T15:36:01.106Z,7.50
2023-02-12T15:38:55.763Z,7.00
2023-02-12T15:41:40.232Z,8.20
2023-02-12T15:44:30.248Z,8.03
2023-02-12T15:47:33.243Z,7.93
2023-02-12T15:50:01.194Z,7.80
2023-02-12T15:52:38.174Z,7.17
2023-02-12T15:55:07.330Z,7.73
2023-02-12T15:57:34.338Z,8.03
2023-02-12T16:00:13.144Z,6.83
2023-02-12T16:02:44.229Z,6.60
2023-02-12T16:05:15.481Z,6.40
2023-02-12T16:07:42.482Z,6.53
2023-02-12T16:10:15.259Z,6.20
2023-02-12T16:12:43.856Z,6.87
2023-02-12T16:15:26.464Z,6.50
2023-02-12T16:17:54.328Z,6.50
2023-02-12T16:20:30.306Z,8.03
2023-02-12T16:22:57.810Z,7.37
2023-02-12T16:25:33.629Z,7.70
2023-02-12T16:28:05.312Z,10.50
2023-02-12T16:30:34.474Z,9.30
2023-02-12T16:33:02.012Z,8.50
2023-02-12T16:36:00.728Z,7.87
2023-02-12T16:38:38.720Z,8.70
2023-02-12T16:41:25.367Z,8.80
2023-02-12T16:44:01.423Z,10.43
2023-02-12T16:46:33.309Z,10.27
2023-02-12T16:49:02.848Z,7.33
2023-02-12T16:51:39.434Z,10.00
2023-02-12T16:54:28.890Z,9.37
2023-02-12T16:56:59.723Z,9.17
2023-02-12T16:59:28.024Z,9.17
2023-02-12T17:02:11.519Z,11.07
2023-02-12T17:04:38.510Z,9.67
2023-02-12T17:07:16.994Z,9.37
2023-02-12T17:09:44.288Z,9.83
2023-02-12T17:12:13.968Z,11.10
2023-02-12T17:14:43.902Z,12.23
2023-02-12T17:17:14.327Z,10.10
2023-02-12T17:19:41.682Z,9.40
2023-02-12T17:22:18.290Z,8.67
2023-02-12T17:24:50.744Z,9.70
2023-02-12T17:27:24.134Z,8.30
2023-02-12T17:29:52.251Z,8.40
2023-02-12T17:32:20.570Z,10.07
2023-02-12T17:34:49.480Z,9.03
2023-02-12T17:37:17.268Z,11.87
2023-02-12T17:39:45.988Z,11.87
2023-02-12T17:42:12.832Z,10.73
2023-02-12T17:44:40.285Z,10.40
2023-02-12T17:47:06.918Z,10.37
2023-02-12T17:49:35.934Z,10.07
2023-02-12T17:52:07.026Z,9.87
2023-02-12T17:54:36.742Z,10.70
2023-02-12T17:57:06.555Z,8.50
2023-02-12T17:59:33.402Z,8.63
2023-02-12T18:02:00.585Z,8.10
2023-02-12T18:04:28.106Z,8.87
2023-02-12T18:06:58.012Z,8.47
2023-02-12T18:09:24.599Z,8.67
2023-02-12T18:11:52.408Z,8.77
2023-02-12T18:14:19.305Z,10.00
2023-02-12T18:16:46.717Z,8.90
2023-02-12T18:19:14.456Z,9.60
2023-02-12T18:21:41.300Z,11.00
2023-02-12T18:24:08.674Z,9.50
2023-02-12T18:26:35.477Z,8.53
2023-02-12T18:29:02.988Z,8.70
2023-02-12T18:31:30.122Z,9.40
2023-02-12T18:33:57.567Z,9.30
2023-02-12T18:36:24.158Z,8.80
2023-02-12T18:38:53.083Z,9.90
2023-02-12T18:41:27.220Z,9.70
2023-02-12T18:43:55.015Z,9.37
2023-02-12T18:46:27.983Z,10.23
2023-02-12T18:48:57.002Z,9.47
2023-02-12T18:51:30.301Z,10.23
2023-02-12T18:54:06.452Z,9.37
2023-02-12T18:56:36.808Z,10.20
2023-02-12T18:59:05.424Z,10.07
2023-02-12T19:01:34.161Z,9.23
2023-02-12T19:04:07.419Z,8.90
2023-02-12T19:06:37.905Z,8.73
2023-02-12T19:09:05.097Z,9.63
2023-02-12T19:11:34.294Z,11.07
2023-02-12T19:14:03.973Z,12.13
2023-02-12T19:16:32.796Z,11.50
2023-02-12T19:19:01.463Z,11.23
2023-02-12T19:21:28.771Z,10.83
2023-02-12T19:23:57.127Z,12.03
2023-02-12T19:26:23.968Z,11.83
2023-02-12T19:28:53.375Z,11.70
2023-02-12T19:31:26.002Z,11.83
2023-02-12T19:33:59.148Z,11.60
2023-02-12T19:36:27.696Z,12.73
2023-02-12T19:38:54.285Z,12.03
2023-02-12T19:41:25.254Z,11.70
2023-02-12T19:43:59.373Z,11.60
2023-02-12T19:46:28.692Z,13.13
2023-02-12T19:48:58.165Z,11.57
2023-02-12T19:51:27.043Z,11.17
2023-02-12T19:53:54.285Z,11.90
2023-02-12T19:56:22.938Z,11.23
2023-02-12T19:58:51.267Z,11.60
2023-02-12T20:01:20.525Z,10.80
2023-02-12T20:03:49.979Z,12.20
2023-02-12T20:06:20.878Z,12.10
2023-02-12T20:08:49.327Z,10.90
2023-02-12T20:11:18.693Z,10.97
2023-02-12T20:13:48.308Z,9.90
2023-02-12T20:16:17.651Z,9.87
2023-02-12T20:18:47.107Z,9.60
2023-02-12T20:21:18.507Z,10.20
2023-02-12T20:23:47.619Z,8.20
2023-02-12T20:26:18.005Z,11.07
2023-02-12T20:28:47.306Z,8.53
2023-02-12T20:31:25.830Z,9.43
2023-02-12T20:33:58.175Z,9.63
2023-02-12T20:36:27.122Z,10.80
2023-02-12T20:38:58.357Z,10.80
2023-02-12T20:41:26.424Z,10.10
2023-02-12T20:43:56.949Z,10.60
2023-02-12T20:46:26.339Z,11.17
2023-02-12T20:48:54.826Z,11.70
2023-02-12T20:51:25.187Z,10.30
2023-02-12T20:53:55.806Z,11.60
2023-02-12T20:56:25.270Z,10.37
2023-02-12T20:58:56.169Z,11.70
2023-02-12T21:01:25.222Z,10.47
2023-02-12T21:03:55.539Z,10.33
2023-02-12T21:06:24.244Z,12.17
2023-02-12T21:08:51.869Z,11.10
2023-02-12T21:11:29.380Z,10.23
2023-02-12T21:14:20.849Z,12.30
2023-02-12T21:16:48.935Z,10.80
2023-02-12T21:19:16.327Z,10.10
2023-02-12T21:21:46.296Z,10.77
2023-02-12T21:24:17.569Z,10.67
2023-02-12T21:26:46.069Z,10.23
2023-02-12T21:29:14.133Z,9.37
2023-02-12T21:31:43.906Z,9.90
2023-02-12T21:34:18.040Z,10.10
2023-02-12T21:36:55.052Z,13.00
2023-02-12T21:39:34.500Z,11.73
2023-02-12T21:42:05.544Z,12.20
2023-02-12T21:44:36.326Z,11.60
2023-02-12T21:47:03.087Z,12.93
2023-02-12T21:49:30.388Z,12.37
2023-02-12T21:52:02.584Z,12.77
2023-02-12T21:54:31.335Z,13.27
2023-02-12T21:56:58.882Z,12.13
2023-02-12T21:59:31.921Z,13.10
2023-02-12T22:02:00.848Z,14.10
2023-02-12T22:04:32.471Z,11.83
2023-02-12T22:07:03.283Z,11.40
2023-02-12T22:09:30.179Z,11.93
2023-02-12T22:12:00.272Z,11.20
2023-02-12T22:14:26.856Z,11.90
2023-02-12T22:16:53.702Z,12.40
2023-02-12T22:19:22.210Z,10.70
2023-02-12T22:21:53.867Z,11.17
2023-02-12T22:24:21.892Z,10.43
2023-02-12T22:26:48.825Z,10.00
2023-02-12T22:29:16.452Z,10.10
2023-02-12T22:31:45.034Z,9.23
2023-02-12T22:34:15.936Z,10.57
2023-02-12T22:36:43.635Z,10.13
2023-02-12T22:39:13.393Z,10.13
2023-02-12T22:41:42.037Z,8.60
2023-02-12T22:44:11.226Z,10.57
2023-02-12T22:46:41.562Z,9.30
2023-02-12T22:49:08.179Z,10.50
2023-02-12T22:51:37.250Z,9.40
2023-02-12T22:54:04.490Z,8.67
2023-02-12T22:56:34.186Z,11.37
2023-02-12T22:59:01.881Z,9.67
2023-02-12T23:01:34.221Z,9.10
2023-02-12T23:04:02.145Z,9.60
2023-02-12T23:06:33.237Z,9.70
2023-02-12T23:09:03.642Z,9.90
2023-02-12T23:11:33.977Z,9.83
2023-02-12T23:14:01.430Z,9.03
2023-02-12T23:16:28.137Z,11.87
2023-02-12T23:18:58.337Z,11.33
2023-02-12T23:21:27.330Z,11.80
2023-02-12T23:23:54.725Z,10.57
2023-02-12T23:26:21.871Z,11.67
2023-02-12T23:28:49.954Z,13.33
2023-02-12T23:31:16.770Z,10.83
2023-02-12T23:33:45.815Z,11.63
2023-02-12T23:36:12.624Z,9.80
2023-02-12T23:38:39.524Z,10.80
2023-02-12T23:41:06.658Z,10.30
2023-02-12T23:43:35.126Z,9.07
2023-02-12T23:46:01.774Z,10.03
2023-02-12T23:48:28.375Z,11.73
2023-02-12T23:50:55.552Z,10.03
2023-02-12T23:53:22.898Z,11.43
2023-02-12T23:55:54.697Z,11.23
2023-02-12T23:58:21.735Z,9.00
